createdAt,value
2019-05-14T00:01:56.866Z,4.63
2019-05-14T00:04:27.158Z,4.23
2019-05-14T00:06:57.510Z,4.80
2019-05-14T00:09:27.866Z,5.20
2019-05-14T00:11:58.238Z,5.13
2019-05-14T00:14:38.693Z,4.57
2019-05-14T00:16:59.055Z,5.17
2019-05-14T00:19:31.362Z,5.30
2019-05-14T00:22:01.909Z,5.17
2019-05-14T00:24:32.283Z,3.97
2019-05-14T00:27:02.057Z,4.93
2019-05-14T00:29:32.107Z,4.40
2019-05-14T00:32:02.030Z,5.27
2019-05-14T00:34:32.263Z,4.20
2019-05-14T00:37:01.986Z,4.30
2019-05-14T00:39:32.232Z,5.07
2019-05-14T00:42:02.011Z,4.27
2019-05-14T00:44:32.543Z,4.90
2019-05-14T00:47:02.633Z,6.23
2019-05-14T00:49:33.254Z,5.80
2019-05-14T00:52:03.749Z,4.97
2019-05-14T00:54:34.122Z,4.93
2019-05-14T00:57:04.441Z,5.43
2019-05-14T00:59:34.850Z,5.83
2019-05-14T01:02:05.227Z,5.87
2019-05-14T01:04:35.562Z,4.97
2019-05-14T01:07:05.941Z,5.50
2019-05-14T01:09:36.427Z,4.37
2019-05-14T01:12:06.684Z,5.30
2019-05-14T01:14:37.058Z,4.43
2019-05-14T01:17:07.362Z,4.73
2019-05-14T01:19:38.516Z,5.63
2019-05-14T01:22:08.909Z,5.13
2019-05-14T01:24:41.680Z,4.80
2019-05-14T01:27:12.098Z,5.23
2019-05-14T01:29:42.461Z,3.83
2019-05-14T01:32:11.679Z,5.60
2019-05-14T01:34:42.182Z,5.63
2019-05-14T01:37:12.186Z,5.80
2019-05-14T01:39:42.489Z,4.93
2019-05-14T01:42:12.954Z,5.43
2019-05-14T01:44:43.563Z,5.53
2019-05-14T01:47:13.930Z,5.70
2019-05-14T01:49:43.735Z,3.80
2019-05-14T01:52:14.065Z,5.20
2019-05-14T01:54:44.438Z,5.87
2019-05-14T01:57:14.745Z,4.90
2019-05-14T01:59:45.038Z,5.20
2019-05-14T02:02:15.391Z,5.43
2019-05-14T02:04:45.925Z,5.77
2019-05-14T02:07:16.425Z,5.67
2019-05-14T02:09:46.985Z,5.60
2019-05-14T02:12:17.365Z,5.60
2019-05-14T02:14:47.837Z,5.20
2019-05-14T02:17:17.934Z,5.47
2019-05-14T02:19:48.290Z,5.63
2019-05-14T02:22:18.780Z,5.10
2019-05-14T02:24:49.278Z,5.30
2019-05-14T02:27:21.393Z,5.37
2019-05-14T02:29:51.912Z,5.23
2019-05-14T02:32:20.487Z,5.70
2019-05-14T02:34:51.049Z,6.20
2019-05-14T02:37:21.549Z,5.43
2019-05-14T02:39:52.138Z,5.83
2019-05-14T02:42:22.741Z,4.87
2019-05-14T02:44:53.157Z,5.77
2019-05-14T02:47:23.453Z,5.50
2019-05-14T02:49:53.920Z,6.07
2019-05-14T02:52:24.325Z,6.00
2019-05-14T02:54:55.013Z,5.67
2019-05-14T02:57:25.470Z,5.10
2019-05-14T02:59:59.470Z,4.63
2019-05-14T03:02:29.438Z,4.73
2019-05-14T03:04:59.232Z,4.83
2019-05-14T03:07:29.863Z,4.70
2019-05-14T03:09:59.400Z,4.77
2019-05-14T03:12:30.230Z,4.30
2019-05-14T03:14:59.379Z,5.07
2019-05-14T03:17:30.182Z,4.50
2019-05-14T03:20:00.427Z,4.43
2019-05-14T03:22:43.403Z,3.80
2019-05-14T03:25:01.702Z,4.67
2019-05-14T03:27:32.245Z,4.60
2019-05-14T03:30:02.569Z,4.57
2019-05-14T03:32:33.556Z,3.63
2019-05-14T03:35:04.702Z,4.80
2019-05-14T03:37:34.310Z,4.73
2019-05-14T03:40:05.201Z,4.63
2019-05-14T03:42:36.038Z,5.20
2019-05-14T03:45:08.571Z,5.00
2019-05-14T03:47:39.449Z,4.87
2019-05-14T03:50:10.220Z,3.60
2019-05-14T03:52:39.898Z,3.77
2019-05-14T03:55:09.696Z,4.97
2019-05-14T03:57:40.074Z,4.23
2019-05-14T04:00:10.587Z,4.10
2019-05-14T04:02:40.892Z,3.77
2019-05-14T04:05:11.442Z,3.93
2019-05-14T04:07:42.126Z,4.10
2019-05-14T04:10:12.657Z,3.60
2019-05-14T04:12:44.309Z,3.50
2019-05-14T04:15:14.933Z,4.20
2019-05-14T04:17:45.385Z,4.93
2019-05-14T04:20:19.452Z,3.97
2019-05-14T04:22:49.858Z,3.50
2019-05-14T04:25:19.519Z,4.20
2019-05-14T04:27:49.454Z,3.80
2019-05-14T04:30:23.078Z,4.27
2019-05-14T04:32:50.585Z,3.80
2019-05-14T04:35:20.160Z,3.67
2019-05-14T04:37:49.895Z,3.80
2019-05-14T04:40:20.252Z,3.70
2019-05-14T04:42:50.707Z,4.40
2019-05-14T04:45:20.882Z,4.50
2019-05-14T04:47:51.401Z,5.13
2019-05-14T04:50:25.455Z,4.53
2019-05-14T04:52:52.477Z,3.23
2019-05-14T04:55:23.058Z,4.77
2019-05-14T04:57:53.442Z,3.77
2019-05-14T05:00:23.865Z,4.43
2019-05-14T05:02:54.491Z,4.63
2019-05-14T05:05:24.929Z,5.00
2019-05-14T05:07:55.457Z,4.03
2019-05-14T05:10:25.974Z,5.00
2019-05-14T05:12:58.576Z,4.37
2019-05-14T05:15:29.014Z,5.03
2019-05-14T05:17:58.959Z,4.90
2019-05-14T05:20:29.145Z,5.57
2019-05-14T05:22:59.108Z,4.67
2019-05-14T05:25:29.293Z,5.17
2019-05-14T05:27:59.739Z,5.10
2019-05-14T05:30:29.721Z,4.40
2019-05-14T05:33:00.209Z,5.20
2019-05-14T05:35:30.757Z,5.13
2019-05-14T05:38:01.152Z,4.30
2019-05-14T05:40:31.640Z,4.97
2019-05-14T05:43:02.108Z,4.13
2019-05-14T05:45:32.481Z,4.77
2019-05-14T05:48:02.969Z,5.53
2019-05-14T05:50:32.672Z,5.57
2019-05-14T05:53:02.880Z,5.40
2019-05-14T05:55:32.703Z,4.63
2019-05-14T05:58:02.928Z,5.20
2019-05-14T06:00:33.765Z,5.07
2019-05-14T06:03:04.111Z,5.40
2019-05-14T06:05:34.573Z,4.87
2019-05-14T06:08:05.016Z,5.70
2019-05-14T06:10:35.462Z,5.77
2019-05-14T06:13:05.929Z,5.40
2019-05-14T06:15:47.571Z,5.30
2019-05-14T06:18:15.134Z,4.87
2019-05-14T06:20:38.736Z,5.03
2019-05-14T06:23:08.528Z,6.50
2019-05-14T06:25:40.105Z,6.83
2019-05-14T06:28:08.675Z,5.30
2019-05-14T06:30:39.543Z,6.07
2019-05-14T06:33:09.483Z,5.43
2019-05-14T06:35:40.060Z,5.60
2019-05-14T06:38:10.317Z,6.60
2019-05-14T06:40:54.231Z,5.87
2019-05-14T06:43:24.785Z,6.40
2019-05-14T06:45:58.312Z,5.93
2019-05-14T06:48:31.498Z,6.27
2019-05-14T06:50:58.309Z,6.97
2019-05-14T06:53:29.087Z,5.73
2019-05-14T06:55:58.836Z,5.50
2019-05-14T06:58:31.231Z,4.90
2019-05-14T07:01:02.260Z,6.77
2019-05-14T07:03:32.541Z,6.30
2019-05-14T07:06:02.908Z,6.43
2019-05-14T07:08:33.254Z,5.20
2019-05-14T07:11:03.859Z,4.97
2019-05-14T07:13:34.171Z,6.17
2019-05-14T07:16:04.633Z,5.63
2019-05-14T07:18:46.326Z,7.00
2019-05-14T07:21:08.056Z,6.20
2019-05-14T07:23:38.223Z,5.67
2019-05-14T07:26:08.416Z,5.80
2019-05-14T07:28:42.016Z,6.27
2019-05-14T07:31:09.861Z,6.07
2019-05-14T07:33:38.755Z,5.63
2019-05-14T07:36:08.874Z,5.50
2019-05-14T07:38:39.118Z,5.73
2019-05-14T07:41:09.239Z,5.60
2019-05-14T07:43:39.437Z,4.80
2019-05-14T07:46:09.320Z,5.97
2019-05-14T07:48:39.788Z,6.27
2019-05-14T07:51:10.301Z,5.27
2019-05-14T07:53:42.476Z,5.50
2019-05-14T07:56:11.193Z,6.07
2019-05-14T07:58:41.532Z,6.00
2019-05-14T08:01:12.037Z,5.50
2019-05-14T08:03:42.398Z,6.57
2019-05-14T08:06:12.164Z,6.50
2019-05-14T08:08:41.921Z,6.60
2019-05-14T08:11:12.398Z,5.83
2019-05-14T08:13:42.849Z,5.33
2019-05-14T08:16:13.193Z,4.77
2019-05-14T08:18:43.377Z,3.60
2019-05-14T08:21:13.717Z,3.83
2019-05-14T08:23:44.005Z,3.23
2019-05-14T08:26:14.440Z,4.37
2019-05-14T08:28:45.014Z,4.03
2019-05-14T08:31:15.328Z,3.57
2019-05-14T08:33:45.073Z,3.50
2019-05-14T08:36:14.750Z,3.53
2019-05-14T08:38:45.600Z,3.77
2019-05-14T08:41:15.432Z,4.50
2019-05-14T08:43:45.911Z,3.63
2019-05-14T08:46:18.854Z,3.80
2019-05-14T08:48:49.266Z,4.07
2019-05-14T08:51:18.613Z,3.60
2019-05-14T08:53:50.248Z,3.67
2019-05-14T08:56:19.148Z,3.10
2019-05-14T08:58:49.615Z,2.57
2019-05-14T09:01:19.977Z,3.27
2019-05-14T09:03:50.230Z,2.80
2019-05-14T09:06:20.551Z,2.77
2019-05-14T09:08:51.041Z,2.37
2019-05-14T09:11:25.418Z,2.33
2019-05-14T09:13:51.917Z,2.70
2019-05-14T09:16:38.545Z,2.60
2019-05-14T09:18:52.643Z,2.80
2019-05-14T09:21:23.178Z,3.20
2019-05-14T09:23:53.538Z,3.20
2019-05-14T09:26:24.017Z,3.30
2019-05-14T09:28:54.458Z,3.70
2019-05-14T09:31:24.971Z,3.63
2019-05-14T09:33:55.624Z,3.97
2019-05-14T09:36:28.753Z,3.37
2019-05-14T09:38:58.335Z,3.53
2019-05-14T09:41:28.629Z,3.20
2019-05-14T09:43:58.760Z,3.10
2019-05-14T09:46:28.939Z,3.10
2019-05-14T09:48:59.040Z,3.47
2019-05-14T09:51:29.599Z,3.60
2019-05-14T09:54:00.036Z,3.07
2019-05-14T09:56:30.431Z,3.33
2019-05-14T09:59:00.793Z,2.97
2019-05-14T10:01:32.798Z,2.97
2019-05-14T10:04:03.317Z,3.23
2019-05-14T10:06:33.761Z,3.30
2019-05-14T10:09:04.555Z,3.17
2019-05-14T10:11:35.029Z,3.30
2019-05-14T10:14:07.814Z,3.50
2019-05-14T10:16:38.222Z,2.93
2019-05-14T10:19:06.347Z,4.07
2019-05-14T10:21:38.798Z,3.70
2019-05-14T10:24:09.311Z,3.17
2019-05-14T10:26:39.491Z,3.70
2019-05-14T10:29:08.747Z,2.60
2019-05-14T10:31:39.699Z,3.20
2019-05-14T10:34:09.543Z,3.17
2019-05-14T10:36:39.904Z,2.60
2019-05-14T10:39:10.413Z,3.77
2019-05-14T10:41:40.841Z,3.33
2019-05-14T10:44:11.264Z,2.73
2019-05-14T10:46:41.709Z,3.87
2019-05-14T10:49:19.434Z,3.90
2019-05-14T10:51:42.815Z,3.93
2019-05-14T10:54:22.491Z,4.10
2019-05-14T10:56:43.734Z,4.07
2019-05-14T10:59:14.129Z,4.50
2019-05-14T11:01:44.668Z,4.10
2019-05-14T11:04:15.054Z,4.20
2019-05-14T11:06:45.436Z,4.63
2019-05-14T11:09:17.936Z,4.10
2019-05-14T11:11:46.428Z,4.13
2019-05-14T11:14:19.219Z,4.60
2019-05-14T11:16:48.374Z,4.60
2019-05-14T11:19:18.829Z,3.87
2019-05-14T11:21:48.423Z,3.70
2019-05-14T11:24:18.857Z,4.33
2019-05-14T11:26:48.768Z,5.00
2019-05-14T11:29:18.913Z,5.37
2019-05-14T11:31:49.292Z,4.70
2019-05-14T11:34:19.806Z,7.17
2019-05-14T11:36:50.209Z,6.00
2019-05-14T11:39:20.586Z,4.83
2019-05-14T11:41:50.296Z,4.90
2019-05-14T11:44:20.641Z,5.20
2019-05-14T11:46:57.670Z,6.53
2019-05-14T11:49:21.813Z,5.10
2019-05-14T11:52:04.078Z,5.83
2019-05-14T11:54:23.222Z,4.53
2019-05-14T11:56:52.809Z,5.53
2019-05-14T11:59:23.106Z,5.00
2019-05-14T12:01:55.099Z,5.07
2019-05-14T12:04:24.129Z,5.10
2019-05-14T12:06:54.533Z,5.17
2019-05-14T12:09:24.927Z,5.20
2019-05-14T12:11:55.321Z,4.93
2019-05-14T12:14:25.810Z,3.70
2019-05-14T12:16:56.049Z,4.00
2019-05-14T12:19:28.343Z,3.70
2019-05-14T12:22:06.600Z,3.30
2019-05-14T12:24:29.213Z,2.53
2019-05-14T12:26:58.574Z,3.63
2019-05-14T12:29:29.135Z,4.23
2019-05-14T12:31:58.854Z,2.80
2019-05-14T12:34:29.696Z,2.73
2019-05-14T12:36:59.661Z,2.70
2019-05-14T12:39:30.175Z,3.07
2019-05-14T12:42:00.594Z,9.73
2019-05-14T12:44:31.194Z,3.53
2019-05-14T12:47:01.473Z,4.30
2019-05-14T12:49:31.882Z,3.57
2019-05-14T12:52:17.875Z,3.03
2019-05-14T12:54:32.689Z,4.07
2019-05-14T12:57:03.371Z,2.93
2019-05-14T12:59:33.793Z,6.13
2019-05-14T13:02:04.675Z,3.23
2019-05-14T13:04:35.097Z,3.50
2019-05-14T13:07:05.393Z,2.17
2019-05-14T13:09:38.320Z,3.50
2019-05-14T13:12:10.940Z,2.60
2019-05-14T13:14:39.214Z,3.03
2019-05-14T13:17:09.059Z,3.23
2019-05-14T13:19:38.044Z,3.80
2019-05-14T13:22:14.075Z,4.30
2019-05-14T13:24:39.377Z,4.03
2019-05-14T13:27:09.580Z,3.80
2019-05-14T13:29:39.701Z,2.33
2019-05-14T13:32:12.269Z,2.40
2019-05-14T13:34:40.751Z,2.50
2019-05-14T13:37:11.150Z,2.10
2019-05-14T13:39:41.488Z,2.23
2019-05-14T13:42:12.170Z,2.07
2019-05-14T13:44:42.434Z,1.80
2019-05-14T13:47:12.760Z,2.10
2019-05-14T13:49:43.295Z,2.00
2019-05-14T13:52:13.869Z,2.33
2019-05-14T13:54:44.285Z,4.70
2019-05-14T13:57:14.734Z,2.00
2019-05-14T13:59:45.082Z,1.97
2019-05-14T14:02:18.700Z,2.17
2019-05-14T14:04:48.236Z,2.90
2019-05-14T14:07:18.927Z,2.10
2019-05-14T14:09:49.666Z,2.63
2019-05-14T14:12:18.010Z,2.83
2019-05-14T14:14:49.350Z,2.67
2019-05-14T14:17:18.878Z,2.70
2019-05-14T14:19:49.241Z,2.10
2019-05-14T14:22:19.777Z,2.90
2019-05-14T14:24:50.132Z,3.27
2019-05-14T14:27:20.583Z,2.67
2019-05-14T14:29:50.943Z,2.30
2019-05-14T14:32:21.189Z,1.70
2019-05-14T14:34:51.521Z,2.27
2019-05-14T14:37:21.941Z,2.27
2019-05-14T14:39:52.269Z,2.40
2019-05-14T14:42:22.631Z,1.83
2019-05-14T14:44:53.009Z,2.60
2019-05-14T14:47:23.409Z,2.50
2019-05-14T14:49:53.844Z,2.07
2019-05-14T14:52:24.126Z,2.17
2019-05-14T14:54:55.528Z,2.20
2019-05-14T14:57:26.042Z,1.97
2019-05-14T14:59:56.454Z,3.40
2019-05-14T15:02:28.828Z,4.07
2019-05-14T15:04:59.562Z,2.73
2019-05-14T15:07:29.727Z,6.23
2019-05-14T15:09:59.612Z,5.27
2019-05-14T15:12:29.111Z,5.33
2019-05-14T15:14:59.546Z,5.57
2019-05-14T15:17:29.750Z,3.80
2019-05-14T15:20:00.069Z,5.40
2019-05-14T15:22:31.147Z,8.20
2019-05-14T15:25:00.925Z,4.87
2019-05-14T15:27:31.269Z,4.70
2019-05-14T15:30:01.721Z,4.60
2019-05-14T15:32:32.126Z,6.13
2019-05-14T15:35:02.532Z,4.27
2019-05-14T15:37:32.915Z,4.87
2019-05-14T15:40:04.213Z,4.00
2019-05-14T15:42:33.815Z,6.77
2019-05-14T15:45:04.243Z,5.20
2019-05-14T15:47:34.617Z,5.63
2019-05-14T15:50:05.199Z,4.10
2019-05-14T15:52:35.529Z,2.10
2019-05-14T15:55:08.183Z,2.90
2019-05-14T15:57:39.560Z,3.73
2019-05-14T16:00:08.696Z,3.30
2019-05-14T16:02:39.186Z,4.57
2019-05-14T16:05:10.034Z,3.10
2019-05-14T16:07:39.733Z,2.33
2019-05-14T16:10:10.340Z,2.90
2019-05-14T16:12:40.778Z,3.53
2019-05-14T16:15:11.182Z,3.30
2019-05-14T16:17:49.163Z,4.20
2019-05-14T16:20:12.128Z,4.50
2019-05-14T16:22:42.479Z,3.80
2019-05-14T16:25:13.014Z,4.33
2019-05-14T16:27:43.452Z,4.17
2019-05-14T16:30:13.935Z,3.83
2019-05-14T16:32:44.632Z,2.97
2019-05-14T16:35:15.126Z,3.33
2019-05-14T16:37:45.333Z,3.47
2019-05-14T16:40:15.741Z,3.60
2019-05-14T16:42:48.410Z,4.07
2019-05-14T16:45:18.586Z,2.97
2019-05-14T16:47:47.405Z,3.10
2019-05-14T16:50:18.986Z,3.40
2019-05-14T16:52:49.386Z,4.33
2019-05-14T16:55:26.776Z,3.00
2019-05-14T16:57:49.500Z,3.83
2019-05-14T17:00:19.977Z,3.37
2019-05-14T17:02:50.377Z,3.17
2019-05-14T17:05:22.426Z,2.00
2019-05-14T17:07:52.824Z,2.70
2019-05-14T17:10:23.334Z,1.90
2019-05-14T17:12:57.464Z,2.20
2019-05-14T17:15:24.044Z,3.50
2019-05-14T17:17:54.432Z,5.87
2019-05-14T17:20:24.759Z,2.17
2019-05-14T17:22:55.058Z,4.00
2019-05-14T17:25:27.922Z,2.80
2019-05-14T17:27:55.833Z,2.83
2019-05-14T17:30:28.875Z,2.60
2019-05-14T17:32:58.914Z,2.90
2019-05-14T17:35:29.581Z,2.57
2019-05-14T17:37:58.723Z,3.10
2019-05-14T17:40:27.882Z,2.20
2019-05-14T17:42:59.221Z,3.40
2019-05-14T17:45:28.681Z,2.80
2019-05-14T17:47:59.122Z,2.63
2019-05-14T17:50:29.521Z,3.03
2019-05-14T17:53:00.300Z,3.17
2019-05-14T17:55:43.563Z,2.40
2019-05-14T17:58:01.241Z,2.53
2019-05-14T18:00:31.684Z,1.27
2019-05-14T18:03:02.158Z,1.60
2019-05-14T18:05:32.489Z,1.77
2019-05-14T18:08:02.961Z,2.20
2019-05-14T18:10:33.500Z,1.90
2019-05-14T18:13:03.853Z,2.57
2019-05-14T18:15:34.266Z,4.90
2019-05-14T18:18:04.704Z,3.23
2019-05-14T18:20:35.096Z,3.10
2019-05-14T18:23:05.659Z,3.30
2019-05-14T18:25:38.680Z,5.13
2019-05-14T18:28:09.271Z,3.20
2019-05-14T18:30:38.719Z,2.30
2019-05-14T18:33:08.049Z,2.20
2019-05-14T18:35:44.755Z,2.13
2019-05-14T18:38:09.349Z,2.53
2019-05-14T18:40:39.896Z,2.57
2019-05-14T18:43:10.264Z,2.93
2019-05-14T18:45:40.765Z,3.80
2019-05-14T18:48:11.157Z,2.97
2019-05-14T18:50:41.497Z,2.30
2019-05-14T18:53:13.121Z,2.60
2019-05-14T18:55:41.638Z,3.20
2019-05-14T18:58:12.117Z,2.77
2019-05-14T19:00:42.512Z,3.00
2019-05-14T19:03:13.372Z,3.17
2019-05-14T19:05:44.010Z,2.67
2019-05-14T19:08:14.632Z,2.50
2019-05-14T19:10:45.013Z,2.83
2019-05-14T19:13:15.584Z,2.97
2019-05-14T19:15:48.255Z,3.40
2019-05-14T19:18:19.048Z,3.47
2019-05-14T19:20:48.583Z,4.17
2019-05-14T19:23:18.725Z,3.50
2019-05-14T19:25:48.440Z,3.43
2019-05-14T19:28:18.868Z,3.40
2019-05-14T19:30:48.895Z,3.87
2019-05-14T19:33:20.623Z,3.57
2019-05-14T19:35:49.342Z,3.70
2019-05-14T19:38:19.990Z,3.00
2019-05-14T19:40:50.353Z,4.50
2019-05-14T19:43:20.710Z,4.40
2019-05-14T19:45:51.108Z,3.30
2019-05-14T19:48:21.493Z,3.07
2019-05-14T19:50:51.796Z,3.33
2019-05-14T19:53:22.301Z,2.60
2019-05-14T19:55:52.585Z,2.90
2019-05-14T19:58:23.106Z,3.47
2019-05-14T20:00:53.566Z,2.87
2019-05-14T20:03:23.890Z,3.30
2019-05-14T20:05:54.317Z,2.47
2019-05-14T20:08:24.654Z,3.27
2019-05-14T20:10:55.181Z,2.53
2019-05-14T20:13:25.510Z,3.47
2019-05-14T20:15:56.012Z,2.53
2019-05-14T20:18:28.737Z,3.20
2019-05-14T20:20:58.960Z,2.30
2019-05-14T20:23:29.053Z,2.40
2019-05-14T20:25:58.712Z,2.77
2019-05-14T20:28:28.216Z,3.00
2019-05-14T20:30:58.797Z,2.97
2019-05-14T20:33:29.297Z,3.60
2019-05-14T20:35:59.746Z,3.00
2019-05-14T20:38:30.154Z,3.73
2019-05-14T20:41:00.467Z,3.30
2019-05-14T20:43:30.841Z,3.50
2019-05-14T20:46:01.350Z,3.40
2019-05-14T20:48:31.850Z,2.97
2019-05-14T20:51:02.126Z,3.27
2019-05-14T20:53:32.641Z,3.20
2019-05-14T20:56:02.974Z,2.77
2019-05-14T20:58:33.433Z,3.13
2019-05-14T21:01:03.813Z,2.27
2019-05-14T21:03:34.148Z,2.97
2019-05-14T21:06:04.434Z,3.63
2019-05-14T21:08:34.709Z,3.27
2019-05-14T21:11:05.271Z,4.70
2019-05-14T21:13:35.846Z,3.47
2019-05-14T21:16:08.409Z,3.30
2019-05-14T21:18:40.889Z,3.63
2019-05-14T21:21:10.920Z,4.33
2019-05-14T21:23:38.327Z,3.90
2019-05-14T21:26:08.631Z,4.20
2019-05-14T21:28:39.455Z,4.00
2019-05-14T21:31:10.479Z,3.20
2019-05-14T21:33:40.120Z,2.97
2019-05-14T21:36:12.407Z,2.87
2019-05-14T21:38:41.319Z,3.10
2019-05-14T21:41:11.893Z,3.13
2019-05-14T21:43:42.196Z,3.10
2019-05-14T21:46:12.839Z,3.20
2019-05-14T21:48:43.301Z,3.20
2019-05-14T21:51:13.799Z,2.73
2019-05-14T21:53:44.337Z,3.30
2019-05-14T21:56:14.989Z,3.50
2019-05-14T21:58:45.393Z,3.63
2019-05-14T22:01:15.657Z,3.80
2019-05-14T22:03:45.841Z,4.23
2019-05-14T22:06:18.150Z,3.83
2019-05-14T22:08:48.238Z,4.47
2019-05-14T22:11:18.755Z,3.13
2019-05-14T22:13:49.450Z,3.73
2019-05-14T22:16:18.989Z,3.10
2019-05-14T22:18:48.427Z,3.40
2019-05-14T22:21:18.817Z,3.50
2019-05-14T22:23:49.229Z,3.27
2019-05-14T22:26:19.609Z,3.57
2019-05-14T22:28:50.122Z,2.80
2019-05-14T22:31:20.939Z,3.50
2019-05-14T22:33:51.237Z,3.50
2019-05-14T22:36:21.654Z,3.10
2019-05-14T22:38:51.606Z,3.43
2019-05-14T22:41:21.860Z,3.10
2019-05-14T22:43:52.346Z,2.80
2019-05-14T22:46:22.840Z,3.47
2019-05-14T22:48:53.266Z,2.87
2019-05-14T22:51:23.825Z,3.87
2019-05-14T22:53:54.373Z,3.80
2019-05-14T22:56:24.968Z,4.33
2019-05-14T22:58:55.396Z,3.93
2019-05-14T23:01:25.909Z,3.53
2019-05-14T23:03:56.193Z,3.37
2019-05-14T23:06:28.135Z,3.80
2019-05-14T23:08:58.122Z,3.63
2019-05-14T23:11:28.820Z,3.30
2019-05-14T23:13:58.353Z,3.00
2019-05-14T23:16:34.430Z,3.00
2019-05-14T23:18:59.120Z,3.00
2019-05-14T23:21:29.657Z,3.27
2019-05-14T23:24:00.161Z,3.27
2019-05-14T23:26:30.577Z,3.60
2019-05-14T23:29:01.025Z,2.90
2019-05-14T23:31:32.035Z,3.33
2019-05-14T23:34:02.395Z,3.20
2019-05-14T23:36:33.028Z,2.90
2019-05-14T23:39:03.754Z,3.83
2019-05-14T23:41:34.160Z,3.13
2019-05-14T23:44:04.716Z,3.23
2019-05-14T23:46:35.385Z,4.43
2019-05-14T23:49:05.848Z,3.73
2019-05-14T23:51:38.385Z,3.00
2019-05-14T23:54:08.733Z,3.50
2019-05-14T23:56:38.460Z,5.60
2019-05-14T23:59:09.281Z,3.93
